createdAt,value
2019-05-29T13:37:32.151Z,23.50
2019-05-29T13:40:00.614Z,23.50
2019-05-29T14:03:50.591Z,26.20
2019-05-29T14:10:35.430Z,25.70
2019-05-29T14:13:05.219Z,25.80
2019-05-29T14:15:33.744Z,25.90
2019-05-29T14:18:02.873Z,26.20
2019-05-29T14:20:31.549Z,26.80
2019-05-29T14:23:01.146Z,26.80
2019-05-29T14:25:29.748Z,27.00
2019-05-29T14:38:29.088Z,25.80
2019-05-29T14:40:57.501Z,23.80
2019-05-29T14:43:25.979Z,22.00
2019-05-29T14:45:54.391Z,20.50
2019-05-29T14:48:22.821Z,19.30
2019-05-29T14:50:51.238Z,18.50
2019-05-29T14:53:19.645Z,18.10
2019-05-29T14:55:48.127Z,17.70
2019-05-29T14:58:16.625Z,18.20
2019-05-29T15:00:45.113Z,18.70
2019-05-29T15:03:13.654Z,19.20
2019-05-29T15:05:42.161Z,21.20
2019-05-29T15:08:09.876Z,22.80
2019-05-29T15:10:36.157Z,23.30
2019-05-29T15:13:02.189Z,23.70
2019-05-29T15:15:28.334Z,24.10
2019-05-29T15:17:54.584Z,24.80
2019-05-29T15:20:20.820Z,26.10
2019-05-29T15:22:46.844Z,28.40
2019-05-29T15:25:21.827Z,30.00
2019-05-29T15:27:41.109Z,29.30
2019-05-29T15:30:08.796Z,26.40
2019-05-29T15:32:35.121Z,23.80
2019-05-29T15:35:01.680Z,21.80
2019-05-29T15:37:27.701Z,20.00
2019-05-29T15:39:53.849Z,18.90
2019-05-29T15:42:19.906Z,18.20
2019-05-29T15:44:46.177Z,17.70
2019-05-29T15:47:12.992Z,17.40
2019-05-29T15:49:39.217Z,17.20
2019-05-29T15:52:05.268Z,17.10
2019-05-29T15:54:31.398Z,17.10
2019-05-29T15:56:57.498Z,17.00
2019-05-29T15:59:23.615Z,16.80
2019-05-29T16:01:49.732Z,16.80
2019-05-29T16:04:15.900Z,17.10
2019-05-29T16:06:41.994Z,18.00
2019-05-29T16:09:08.258Z,19.00
2019-05-29T16:11:35.218Z,20.40
2019-05-29T16:14:01.365Z,20.60
2019-05-29T16:16:27.404Z,20.60
2019-05-29T16:18:53.444Z,20.80
2019-05-29T16:21:19.532Z,21.40
2019-05-29T16:23:45.593Z,22.80
2019-05-29T16:26:13.017Z,24.10
2019-05-29T16:28:39.177Z,24.60
2019-05-29T16:31:05.211Z,24.60
2019-05-29T16:33:31.229Z,23.70
2019-05-29T16:35:57.268Z,23.30
2019-05-29T16:38:23.318Z,23.30
2019-05-29T16:40:49.413Z,22.20
2019-05-29T16:43:16.005Z,20.70
2019-05-29T16:45:42.229Z,19.40
2019-05-29T16:48:08.378Z,18.40
2019-05-29T16:50:34.508Z,17.90
2019-05-29T16:53:00.657Z,17.40
2019-05-29T16:55:26.768Z,17.30
2019-05-29T16:57:52.890Z,17.30
2019-05-29T17:00:19.702Z,17.30
2019-05-29T17:02:45.961Z,17.20
2019-05-29T17:05:13.514Z,16.80
2019-05-29T17:07:39.905Z,16.40
2019-05-29T17:10:06.956Z,16.10
2019-05-29T17:12:33.009Z,15.90
2019-05-29T17:14:59.168Z,15.80
2019-05-29T17:17:25.501Z,15.70
2019-05-29T17:19:51.527Z,15.60
2019-05-29T17:22:18.891Z,15.60
2019-05-29T17:24:45.085Z,15.60
2019-05-29T17:27:11.211Z,15.70
2019-05-29T17:29:37.349Z,15.60
2019-05-29T17:32:03.468Z,15.60
2019-05-29T17:34:29.576Z,15.50
2019-05-29T17:36:55.748Z,15.40
2019-05-29T17:39:22.982Z,15.20
2019-05-29T17:41:49.188Z,15.30
2019-05-29T17:44:15.460Z,15.30
2019-05-29T17:46:42.776Z,15.10
2019-05-29T17:49:08.903Z,15.00
2019-05-29T17:51:35.078Z,14.90
2019-05-29T17:54:01.136Z,14.90
2019-05-29T17:56:36.268Z,14.80
2019-05-29T17:58:55.242Z,14.90
2019-05-29T18:01:22.211Z,14.80
2019-05-29T18:03:48.312Z,14.80
2019-05-29T18:06:14.484Z,14.80
2019-05-29T18:08:40.562Z,14.80
2019-05-29T18:11:06.693Z,14.80
2019-05-29T18:13:32.821Z,14.60
2019-05-29T18:15:58.945Z,14.50
2019-05-29T18:18:25.726Z,14.40
2019-05-29T18:20:52.019Z,14.20
2019-05-29T18:23:18.146Z,14.10
2019-05-29T18:25:44.776Z,13.90
2019-05-29T18:28:10.893Z,13.90
2019-05-29T18:30:37.040Z,13.80
2019-05-29T18:33:03.356Z,13.60
2019-05-29T18:35:29.400Z,13.60
2019-05-29T18:37:55.557Z,13.50
2019-05-29T18:40:22.309Z,13.50
2019-05-29T18:42:48.568Z,13.40
2019-05-29T18:45:21.050Z,13.30
2019-05-29T18:47:43.396Z,13.20
2019-05-29T18:50:10.027Z,13.20
2019-05-29T18:52:36.086Z,13.10
2019-05-29T18:55:04.876Z,13.00
2019-05-29T18:57:30.973Z,12.90
2019-05-29T18:59:57.100Z,12.80
2019-05-29T19:02:23.353Z,12.80
2019-05-29T19:04:49.424Z,12.70
2019-05-29T19:07:15.608Z,12.70
2019-05-29T19:09:41.691Z,12.60
2019-05-29T19:12:07.841Z,12.50
2019-05-29T19:14:33.925Z,12.40
2019-05-29T19:17:00.129Z,12.30
2019-05-29T19:19:26.284Z,12.10
2019-05-29T19:21:52.438Z,11.90
2019-05-29T19:24:18.605Z,11.80
2019-05-29T19:26:44.702Z,11.70
2019-05-29T19:29:10.882Z,11.60
2019-05-29T19:31:36.986Z,11.50
2019-05-29T19:34:03.251Z,11.40
2019-05-29T19:36:29.912Z,11.40
2019-05-29T19:38:56.110Z,11.30
2019-05-29T19:41:22.206Z,11.20
2019-05-29T19:43:48.307Z,11.10
2019-05-29T19:46:14.387Z,11.10
2019-05-29T19:48:40.468Z,11.10
2019-05-29T19:51:06.585Z,11.00
2019-05-29T19:53:33.499Z,11.00
2019-05-29T19:55:59.760Z,11.00
2019-05-29T19:58:25.887Z,11.00
2019-05-29T20:00:51.955Z,11.10
2019-05-29T20:03:20.106Z,11.10
2019-05-29T20:05:46.014Z,11.20
2019-05-29T20:08:12.095Z,11.20
2019-05-29T20:10:38.173Z,11.20
2019-05-29T20:13:04.568Z,11.20
2019-05-29T20:15:30.509Z,11.20
2019-05-29T20:17:56.592Z,11.20
2019-05-29T20:20:22.746Z,11.20
2019-05-29T20:22:48.834Z,11.20
2019-05-29T20:25:15.113Z,11.20
2019-05-29T20:27:42.393Z,11.20
2019-05-29T20:30:16.932Z,11.20
2019-05-29T20:32:43.248Z,11.20
2019-05-29T20:35:09.537Z,11.10
2019-05-29T20:37:36.310Z,11.10
2019-05-29T20:40:04.938Z,11.10
2019-05-29T20:42:32.056Z,11.10
2019-05-29T20:44:58.296Z,11.10
2019-05-29T20:47:24.384Z,11.10
2019-05-29T20:49:50.466Z,11.10
2019-05-29T20:52:16.704Z,11.10
2019-05-29T20:54:42.791Z,11.10
2019-05-29T20:57:11.983Z,11.10
2019-05-29T20:59:39.883Z,11.10
2019-05-29T21:02:06.465Z,11.10
2019-05-29T21:04:33.025Z,11.10
2019-05-29T21:06:59.562Z,11.10
2019-05-29T21:09:25.627Z,11.10
2019-05-29T21:11:51.710Z,11.10
2019-05-29T21:14:17.902Z,11.10
2019-05-29T21:16:44.075Z,11.00
2019-05-29T21:19:10.192Z,11.00
2019-05-29T21:21:36.344Z,11.00
2019-05-29T21:24:03.052Z,11.00
2019-05-29T21:26:29.118Z,11.00
2019-05-29T21:28:55.199Z,11.00
2019-05-29T21:31:21.432Z,11.00
2019-05-29T21:33:49.332Z,10.90
2019-05-29T21:36:15.474Z,10.90
2019-05-29T21:38:42.284Z,10.90
2019-05-29T21:41:08.431Z,10.90
2019-05-29T21:43:34.517Z,11.00
2019-05-29T21:46:00.611Z,11.00
2019-05-29T21:48:26.696Z,11.00
2019-05-29T21:50:52.763Z,11.00
2019-05-29T21:53:18.859Z,11.00
2019-05-29T21:55:45.685Z,10.90
2019-05-29T21:58:11.936Z,11.00
2019-05-29T22:00:44.417Z,11.00
2019-05-29T22:03:10.702Z,11.00
2019-05-29T22:05:36.885Z,10.90
2019-05-29T22:08:03.365Z,10.90
2019-05-29T22:10:29.444Z,10.80
2019-05-29T22:12:56.481Z,10.70
2019-05-29T22:15:22.628Z,10.60
2019-05-29T22:17:48.715Z,10.50
2019-05-29T22:20:15.169Z,10.50
2019-05-29T22:22:41.267Z,10.40
2019-05-29T22:25:07.832Z,10.40
2019-05-29T22:27:34.757Z,10.30
2019-05-29T22:30:01.562Z,10.30
2019-05-29T22:32:27.764Z,10.20
2019-05-29T22:34:53.849Z,10.20
2019-05-29T22:37:19.913Z,10.10
2019-05-29T22:39:46.008Z,10.10
2019-05-29T22:42:12.176Z,10.10
2019-05-29T22:44:38.309Z,10.00
2019-05-29T22:47:04.553Z,10.00
2019-05-29T22:49:30.566Z,10.00
2019-05-29T22:51:57.754Z,10.10
2019-05-29T22:54:23.980Z,10.10
2019-05-29T22:56:50.051Z,10.10
2019-05-29T22:59:31.115Z,10.10
2019-05-29T23:01:44.107Z,10.10
2019-05-29T23:04:10.197Z,10.20
2019-05-29T23:06:36.347Z,10.20
2019-05-29T23:09:04.524Z,10.10
2019-05-29T23:11:30.660Z,10.10
2019-05-29T23:13:56.739Z,10.10
2019-05-29T23:16:22.827Z,10.10
2019-05-29T23:18:48.907Z,10.10
2019-05-29T23:21:14.978Z,10.10
2019-05-29T23:23:41.046Z,10.10
2019-05-29T23:26:07.134Z,10.10
2019-05-29T23:28:33.381Z,10.10
2019-05-29T23:30:59.486Z,10.10
2019-05-29T23:33:25.571Z,10.10
2019-05-29T23:35:52.809Z,10.10
2019-05-29T23:38:19.132Z,10.10
2019-05-29T23:40:45.229Z,10.10
2019-05-29T23:43:11.304Z,10.10
2019-05-29T23:45:37.523Z,10.10
2019-05-29T23:48:03.924Z,10.10
2019-05-29T23:50:30.020Z,10.10
2019-05-29T23:52:56.104Z,10.10
2019-05-29T23:55:22.263Z,10.10
2019-05-29T23:57:48.360Z,10.00
